sensor_id;sensor_type;location;lat;lon;timestamp;pressure;altitude;pressure_sealevel;temperature;humidity
49194;BME280;35029;50.804;12.866;2023-11-18T00:00:25;98260.34;;;3.58;100.00
49194;BME280;35029;50.804;12.866;2023-11-18T00:02:51;98273.75;;;3.64;100.00
49194;BME280;35029;50.804;12.866;2023-11-18T00:05:17;98272.63;;;3.67;100.00
49194;BME280;35029;50.804;12.866;2023-11-18T00:07:43;98241.16;;;3.47;100.00
49194;BME280;35029;50.804;12.866;2023-11-18T00:10:09;98262.13;;;3.47;100.00
49194;BME280;35029;50.804;12.866;2023-11-18T00:12:35;98260.47;;;3.46;100.00
49194;BME280;35029;50.804;12.866;2023-11-18T00:15:04;98277.59;;;3.60;100.00
49194;BME280;35029;50.804;12.866;2023-11-18T00:17:31;98283.00;;;3.59;100.00
49194;BME280;35029;50.804;12.866;2023-11-18T00:19:57;98280.91;;;3.62;100.00
49194;BME280;35029;50.804;12.866;2023-11-18T00:22:23;98291.38;;;3.62;100.00
49194;BME280;35029;50.804;12.866;2023-11-18T00:24:48;98300.34;;;3.60;100.00
49194;BME280;35029;50.804;12.866;2023-11-18T00:27:14;98301.06;;;3.62;100.00
49194;BME280;35029;50.804;12.866;2023-11-18T00:29:41;98307.13;;;3.62;100.00
49194;BME280;35029;50.804;12.866;2023-11-18T00:32:06;98281.44;;;3.46;100.00
49194;BME280;35029;50.804;12.866;2023-11-18T00:34:33;98310.59;;;3.63;100.00
49194;BME280;35029;50.804;12.866;2023-11-18T00:36:58;98309.59;;;3.64;100.00
49194;BME280;35029;50.804;12.866;2023-11-18T00:39:24;98293.72;;;3.55;100.00
49194;BME280;35029;50.804;12.866;2023-11-18T00:41:51;98311.69;;;3.70;100.00
49194;BME280;35029;50.804;12.866;2023-11-18T00:44:17;98306.72;;;3.67;100.00
49194;BME280;35029;50.804;12.866;2023-11-18T00:46:43;98306.84;;;3.65;100.00
49194;BME280;35029;50.804;12.866;2023-11-18T00:49:09;98317.75;;;3.61;100.00
49194;BME280;35029;50.804;12.866;2023-11-18T00:51:36;98299.25;;;3.62;100.00
49194;BME280;35029;50.804;12.866;2023-11-18T00:54:02;98315.94;;;3.51;100.00
49194;BME280;35029;50.804;12.866;2023-11-18T00:56:31;98310.97;;;3.58;100.00
49194;BME280;35029;50.804;12.866;2023-11-18T00:58:58;98296.06;;;3.49;100.00
49194;BME280;35029;50.804;12.866;2023-11-18T01:01:23;98312.22;;;3.64;100.00
49194;BME280;35029;50.804;12.866;2023-11-18T01:03:49;98312.22;;;3.54;100.00
49194;BME280;35029;50.804;12.866;2023-11-18T01:06:14;98318.03;;;3.58;100.00
49194;BME280;35029;50.804;12.866;2023-11-18T01:08:45;98321.88;;;3.63;100.00
49194;BME280;35029;50.804;12.866;2023-11-18T01:11:10;98323.00;;;3.61;100.00
49194;BME280;35029;50.804;12.866;2023-11-18T01:13:36;98316.09;;;3.60;100.00
49194;BME280;35029;50.804;12.866;2023-11-18T01:16:01;98317.06;;;3.59;100.00
49194;BME280;35029;50.804;12.866;2023-11-18T01:18:27;98320.50;;;3.59;100.00
49194;BME280;35029;50.804;12.866;2023-11-18T01:20:53;98325.75;;;3.59;100.00
49194;BME280;35029;50.804;12.866;2023-11-18T01:23:19;98309.31;;;3.47;100.00
49194;BME280;35029;50.804;12.866;2023-11-18T01:25:44;98328.22;;;3.61;100.00
49194;BME280;35029;50.804;12.866;2023-11-18T01:28:10;98330.72;;;3.62;100.00
49194;BME280;35029;50.804;12.866;2023-11-18T01:30:37;98328.09;;;3.62;100.00
49194;BME280;35029;50.804;12.866;2023-11-18T01:33:03;98332.81;;;3.59;100.00
49194;BME280;35029;50.804;12.866;2023-11-18T01:35:29;98321.19;;;3.51;100.00
49194;BME280;35029;50.804;12.866;2023-11-18T01:37:56;98346.44;;;3.62;100.00
49194;BME280;35029;50.804;12.866;2023-11-18T01:40:22;98335.81;;;3.64;100.00
49194;BME280;35029;50.804;12.866;2023-11-18T01:42:49;98340.78;;;3.57;100.00
49194;BME280;35029;50.804;12.866;2023-11-18T01:45:15;98328.66;;;3.56;100.00
49194;BME280;35029;50.804;12.866;2023-11-18T01:47:42;98337.63;;;3.63;100.00
49194;BME280;35029;50.804;12.866;2023-11-18T01:50:10;98331.56;;;3.63;100.00
49194;BME280;35029;50.804;12.866;2023-11-18T01:52:38;98335.81;;;3.64;100.00
49194;BME280;35029;50.804;12.866;2023-11-18T01:55:05;98344.53;;;3.64;100.00
49194;BME280;35029;50.804;12.866;2023-11-18T01:57:34;98345.50;;;3.63;100.00
49194;BME280;35029;50.804;12.866;2023-11-18T02:00:00;98340.53;;;3.60;100.00
49194;BME280;35029;50.804;12.866;2023-11-18T02:02:38;98351.28;;;3.67;100.00
49194;BME280;35029;50.804;12.866;2023-11-18T02:05:05;98351.81;;;3.61;100.00
49194;BME280;35029;50.804;12.866;2023-11-18T02:07:33;98348.78;;;3.65;100.00
49194;BME280;35029;50.804;12.866;2023-11-18T02:09:59;98341.19;;;3.62;100.00
49194;BME280;35029;50.804;12.866;2023-11-18T02:15:04;98347.41;;;3.61;100.00
49194;BME280;35029;50.804;12.866;2023-11-18T02:17:37;98346.31;;;3.64;100.00
49194;BME280;35029;50.804;12.866;2023-11-18T02:20:05;98348.78;;;3.55;100.00
49194;BME280;35029;50.804;12.866;2023-11-18T02:22:42;98351.25;;;3.57;100.00
49194;BME280;35029;50.804;12.866;2023-11-18T02:25:15;98352.91;;;3.58;100.00
49194;BME280;35029;50.804;12.866;2023-11-18T02:27:41;98359.97;;;3.58;100.00
49194;BME280;35029;50.804;12.866;2023-11-18T02:30:09;98360.94;;;3.57;100.00
49194;BME280;35029;50.804;12.866;2023-11-18T02:32:59;98363.13;;;3.51;100.00
49194;BME280;35029;50.804;12.866;2023-11-18T02:35:50;98346.56;;;3.41;100.00
49194;BME280;35029;50.804;12.866;2023-11-18T02:38:20;98372.66;;;3.52;100.00
49194;BME280;35029;50.804;12.866;2023-11-18T02:40:51;98368.38;;;3.51;100.00
49194;BME280;35029;50.804;12.866;2023-11-18T02:43:19;98370.97;;;3.51;100.00
49194;BME280;35029;50.804;12.866;2023-11-18T02:45:44;98358.69;;;3.42;100.00
49194;BME280;35029;50.804;12.866;2023-11-18T02:48:12;98366.03;;;3.58;100.00
49194;BME280;35029;50.804;12.866;2023-11-18T02:50:38;98377.75;;;3.54;100.00
49194;BME280;35029;50.804;12.866;2023-11-18T02:53:06;98378.72;;;3.53;100.00
49194;BME280;35029;50.804;12.866;2023-11-18T02:55:35;98382.19;;;3.53;100.00
49194;BME280;35029;50.804;12.866;2023-11-18T02:58:01;98368.66;;;3.58;100.00
49194;BME280;35029;50.804;12.866;2023-11-18T03:00:28;98367.84;;;3.58;100.00
49194;BME280;35029;50.804;12.866;2023-11-18T03:02:54;98330.13;;;3.39;100.00
49194;BME280;35029;50.804;12.866;2023-11-18T03:05:21;98365.66;;;3.63;100.00
49194;BME280;35029;50.804;12.866;2023-11-18T03:07:47;98367.41;;;3.62;100.00
49194;BME280;35029;50.804;12.866;2023-11-18T03:10:21;98367.84;;;3.58;100.00
49194;BME280;35029;50.804;12.866;2023-11-18T03:12:47;98376.38;;;3.60;100.00
49194;BME280;35029;50.804;12.866;2023-11-18T03:15:14;98380.00;;;3.59;100.00
49194;BME280;35029;50.804;12.866;2023-11-18T03:17:52;98375.13;;;3.54;100.00
49194;BME280;35029;50.804;12.866;2023-11-18T03:20:22;98376.50;;;3.48;100.00
49194;BME280;35029;50.804;12.866;2023-11-18T03:22:49;98380.22;;;3.55;100.00
49194;BME280;35029;50.804;12.866;2023-11-18T03:25:18;98356.06;;;3.42;100.00
49194;BME280;35029;50.804;12.866;2023-11-18T03:27:47;98377.75;;;3.54;100.00
49194;BME280;35029;50.804;12.866;2023-11-18T03:30:13;98344.59;;;3.33;100.00
49194;BME280;35029;50.804;12.866;2023-11-18T03:32:39;98390.84;;;3.54;100.00
49194;BME280;35029;50.804;12.866;2023-11-18T03:35:06;98383.28;;;3.51;100.00
49194;BME280;35029;50.804;12.866;2023-11-18T03:37:34;98389.19;;;3.53;100.00
49194;BME280;35029;50.804;12.866;2023-11-18T03:40:00;98391.72;;;3.54;100.00
49194;BME280;35029;50.804;12.866;2023-11-18T03:42:26;98398.03;;;3.52;100.00
49194;BME280;35029;50.804;12.866;2023-11-18T03:44:54;98399.94;;;3.50;100.00
49194;BME280;35029;50.804;12.866;2023-11-18T03:47:19;98398.44;;;3.47;100.00
49194;BME280;35029;50.804;12.866;2023-11-18T03:49:50;98402.56;;;3.50;100.00
49194;BME280;35029;50.804;12.866;2023-11-18T03:52:16;98403.00;;;3.55;100.00
49194;BME280;35029;50.804;12.866;2023-11-18T03:54:41;98410.16;;;3.53;100.00
49194;BME280;35029;50.804;12.866;2023-11-18T03:57:07;98404.09;;;3.52;100.00
49194;BME280;35029;50.804;12.866;2023-11-18T03:59:33;98411.66;;;3.46;100.00
49194;BME280;35029;50.804;12.866;2023-11-18T04:01:59;98400.22;;;3.37;100.00
49194;BME280;35029;50.804;12.866;2023-11-18T04:04:25;98393.41;;;3.25;100.00
49194;BME280;35029;50.804;12.866;2023-11-18T04:06:51;98404.91;;;3.43;100.00
49194;BME280;35029;50.804;12.866;2023-11-18T04:09:16;98413.31;;;3.37;100.00
49194;BME280;35029;50.804;12.866;2023-11-18T04:11:42;98388.56;;;3.30;100.00
49194;BME280;35029;50.804;12.866;2023-11-18T04:14:10;98415.78;;;3.38;100.00
49194;BME280;35029;50.804;12.866;2023-11-18T04:16:37;98418.56;;;3.37;100.00
49194;BME280;35029;50.804;12.866;2023-11-18T04:19:04;98422.56;;;3.41;100.00
49194;BME280;35029;50.804;12.866;2023-11-18T04:21:30;98424.47;;;3.39;100.00
49194;BME280;35029;50.804;12.866;2023-11-18T04:23:56;98418.59;;;3.47;100.00
49194;BME280;35029;50.804;12.866;2023-11-18T04:26:21;98423.53;;;3.40;100.00
49194;BME280;35029;50.804;12.866;2023-11-18T04:28:47;98420.47;;;3.35;100.00
49194;BME280;35029;50.804;12.866;2023-11-18T04:31:12;98420.88;;;3.30;100.00
49194;BME280;35029;50.804;12.866;2023-11-18T04:33:38;98428.88;;;3.29;100.00
49194;BME280;35029;50.804;12.866;2023-11-18T04:36:07;98431.59;;;3.27;100.00
49194;BME280;35029;50.804;12.866;2023-11-18T04:38:35;98426.13;;;3.30;100.00
49194;BME280;35029;50.804;12.866;2023-11-18T04:41:01;98430.66;;;3.28;100.00
49194;BME280;35029;50.804;12.866;2023-11-18T04:43:31;98412.72;;;3.24;100.00
49194;BME280;35029;50.804;12.866;2023-11-18T04:45:59;98439.75;;;3.34;100.00
49194;BME280;35029;50.804;12.866;2023-11-18T04:48:24;98438.66;;;3.36;100.00
49194;BME280;35029;50.804;12.866;2023-11-18T04:50:50;98438.25;;;3.31;100.00
49194;BME280;35029;50.804;12.866;2023-11-18T04:53:15;98438.38;;;3.30;100.00
49194;BME280;35029;50.804;12.866;2023-11-18T04:55:41;98435.22;;;3.36;100.00
49194;BME280;35029;50.804;12.866;2023-11-18T04:58:08;98436.91;;;3.37;100.00
49194;BME280;35029;50.804;12.866;2023-11-18T05:00:38;98416.59;;;3.29;100.00
49194;BME280;35029;50.804;12.866;2023-11-18T05:03:07;98429.41;;;3.32;100.00
49194;BME280;35029;50.804;12.866;2023-11-18T05:05:38;98438.81;;;3.35;100.00
49194;BME280;35029;50.804;12.866;2023-11-18T05:08:07;98431.53;;;3.38;100.00
49194;BME280;35029;50.804;12.866;2023-11-18T05:10:34;98435.22;;;3.36;100.00
49194;BME280;35029;50.804;12.866;2023-11-18T05:13:00;98437.03;;;3.35;100.00
49194;BME280;35029;50.804;12.866;2023-11-18T05:15:26;98425.38;;;3.18;100.00
49194;BME280;35029;50.804;12.866;2023-11-18T05:17:52;98430.78;;;3.27;100.00
49194;BME280;35029;50.804;12.866;2023-11-18T05:20:19;98424.59;;;3.28;100.00
49194;BME280;35029;50.804;12.866;2023-11-18T05:22:44;98422.91;;;3.27;100.00
49194;BME280;35029;50.804;12.866;2023-11-18T05:25:10;98423.06;;;3.25;100.00
49194;BME280;35029;50.804;12.866;2023-11-18T05:27:36;98419.72;;;3.23;100.00
49194;BME280;35029;50.804;12.866;2023-11-18T05:30:02;98434.34;;;3.26;100.00
49194;BME280;35029;50.804;12.866;2023-11-18T05:32:29;98421.66;;;3.21;100.00
49194;BME280;35029;50.804;12.866;2023-11-18T05:34:55;98426.75;;;3.22;100.00
49194;BME280;35029;50.804;12.866;2023-11-18T05:37:23;98428.88;;;3.29;100.00
49194;BME280;35029;50.804;12.866;2023-11-18T05:39:49;98426.25;;;3.29;100.00
49194;BME280;35029;50.804;12.866;2023-11-18T05:42:27;98437.28;;;3.32;100.00
49194;BME280;35029;50.804;12.866;2023-11-18T05:44:52;98438.94;;;3.33;100.00
49194;BME280;35029;50.804;12.866;2023-11-18T05:47:27;98440.63;;;3.34;100.00
49194;BME280;35029;50.804;12.866;2023-11-18T05:49:53;98431.59;;;3.27;100.00
49194;BME280;35029;50.804;12.866;2023-11-18T05:52:20;98440.88;;;3.31;100.00
49194;BME280;35029;50.804;12.866;2023-11-18T05:54:46;98446.63;;;3.25;100.00
49194;BME280;35029;50.804;12.866;2023-11-18T05:57:18;98443.88;;;3.27;100.00
49194;BME280;35029;50.804;12.866;2023-11-18T05:59:44;98449.69;;;3.30;100.00
49194;BME280;35029;50.804;12.866;2023-11-18T06:02:10;98449.13;;;3.27;100.00
49194;BME280;35029;50.804;12.866;2023-11-18T06:04:43;98456.31;;;3.25;100.00
49194;BME280;35029;50.804;12.866;2023-11-18T06:07:08;98445.81;;;3.25;100.00
49194;BME280;35029;50.804;12.866;2023-11-18T06:09:34;98447.59;;;3.24;100.00
49194;BME280;35029;50.804;12.866;2023-11-18T06:12:00;98438.06;;;3.23;100.00
49194;BME280;35029;50.804;12.866;2023-11-18T06:14:26;98448.69;;;3.21;100.00
49194;BME280;35029;50.804;12.866;2023-11-18T06:16:51;98425.91;;;3.12;100.00
49194;BME280;35029;50.804;12.866;2023-11-18T06:19:17;98435.34;;;3.25;100.00
49194;BME280;35029;50.804;12.866;2023-11-18T06:21:44;98430.03;;;3.15;100.00
49194;BME280;35029;50.804;12.866;2023-11-18T06:24:09;98443.03;;;3.16;100.00
49194;BME280;35029;50.804;12.866;2023-11-18T06:26:36;98434.91;;;3.19;100.00
49194;BME280;35029;50.804;12.866;2023-11-18T06:29:03;98431.56;;;3.17;100.00
49194;BME280;35029;50.804;12.866;2023-11-18T06:31:31;98434.91;;;3.19;100.00
49194;BME280;35029;50.804;12.866;2023-11-18T06:33:57;98428.44;;;3.24;100.00
49194;BME280;35029;50.804;12.866;2023-11-18T06:36:23;98427.03;;;3.19;100.00
49194;BME280;35029;50.804;12.866;2023-11-18T06:38:49;98430.91;;;3.25;100.00
49194;BME280;35029;50.804;12.866;2023-11-18T06:41:19;98433.25;;;3.28;100.00
49194;BME280;35029;50.804;12.866;2023-11-18T06:43:45;98435.34;;;3.25;100.00
49194;BME280;35029;50.804;12.866;2023-11-18T06:46:26;98447.91;;;3.31;100.00
49194;BME280;35029;50.804;12.866;2023-11-18T06:48:54;98436.44;;;3.22;100.00
49194;BME280;35029;50.804;12.866;2023-11-18T06:51:25;98443.50;;;3.31;100.00
49194;BME280;35029;50.804;12.866;2023-11-18T06:53:56;98440.88;;;3.31;100.00
49194;BME280;35029;50.804;12.866;2023-11-18T06:56:26;98446.22;;;3.30;100.00
49194;BME280;35029;50.804;12.866;2023-11-18T06:58:52;98439.34;;;3.29;100.00
49194;BME280;35029;50.804;12.866;2023-11-18T07:01:18;98448.53;;;3.23;100.00
49194;BME280;35029;50.804;12.866;2023-11-18T07:03:45;98445.81;;;3.25;100.00
49194;BME280;35029;50.804;12.866;2023-11-18T07:06:17;98456.03;;;3.28;100.00
49194;BME280;35029;50.804;12.866;2023-11-18T07:08:50;98456.03;;;3.28;100.00
49194;BME280;35029;50.804;12.866;2023-11-18T07:11:17;98452.56;;;3.27;100.00
49194;BME280;35029;50.804;12.866;2023-11-18T07:13:43;98456.03;;;3.28;100.00
49194;BME280;35029;50.804;12.866;2023-11-18T07:16:09;98447.63;;;3.34;100.00
49194;BME280;35029;50.804;12.866;2023-11-18T07:18:36;98456.47;;;3.33;100.00
49194;BME280;35029;50.804;12.866;2023-11-18T07:21:05;98441.84;;;3.30;100.00
49194;BME280;35029;50.804;12.866;2023-11-18T07:23:32;98465.72;;;3.37;100.00
49194;BME280;35029;50.804;12.866;2023-11-18T07:25:58;98470.25;;;3.35;100.00
49194;BME280;35029;50.804;12.866;2023-11-18T07:28:24;98476.06;;;3.38;100.00
49194;BME280;35029;50.804;12.866;2023-11-18T07:30:50;98481.19;;;3.40;100.00
49194;BME280;35029;50.804;12.866;2023-11-18T07:33:16;98494.16;;;3.42;100.00
49194;BME280;35029;50.804;12.866;2023-11-18T07:35:43;98485.59;;;3.40;100.00
49194;BME280;35029;50.804;12.866;2023-11-18T07:38:09;98489.72;;;3.42;100.00
49194;BME280;35029;50.804;12.866;2023-11-18T07:40:36;98471.75;;;3.28;100.00
49194;BME280;35029;50.804;12.866;2023-11-18T07:43:03;98494.41;;;3.38;100.00
49194;BME280;35029;50.804;12.866;2023-11-18T07:45:35;98494.16;;;3.42;100.00
49194;BME280;35029;50.804;12.866;2023-11-18T07:48:06;98491.22;;;3.35;100.00
49194;BME280;35029;50.804;12.866;2023-11-18T07:50:34;98490.56;;;3.43;100.00
49194;BME280;35029;50.804;12.866;2023-11-18T07:53:00;98493.63;;;3.48;100.00
49194;BME280;35029;50.804;12.866;2023-11-18T07:55:25;98502.31;;;3.48;100.00
49194;BME280;35029;50.804;12.866;2023-11-18T07:57:51;98496.63;;;3.43;100.00
49194;BME280;35029;50.804;12.866;2023-11-18T08:00:17;98496.09;;;3.40;100.00
49194;BME280;35029;50.804;12.866;2023-11-18T08:02:43;98508.78;;;3.44;100.00
49194;BME280;35029;50.804;12.866;2023-11-18T08:05:10;98515.13;;;3.42;100.00
49194;BME280;35029;50.804;12.866;2023-11-18T08:07:42;98517.88;;;3.40;100.00
49194;BME280;35029;50.804;12.866;2023-11-18T08:10:10;98517.06;;;3.40;100.00
49194;BME280;35029;50.804;12.866;2023-11-18T08:12:39;98519.84;;;3.48;100.00
49194;BME280;35029;50.804;12.866;2023-11-18T08:15:05;98521.63;;;3.47;100.00
49194;BME280;35029;50.804;12.866;2023-11-18T08:17:35;98517.09;;;3.49;100.00
49194;BME280;35029;50.804;12.866;2023-11-18T08:20:02;98528.84;;;3.55;100.00
49194;BME280;35029;50.804;12.866;2023-11-18T08:22:40;98529.03;;;3.63;100.00
49194;BME280;35029;50.804;12.866;2023-11-18T08:25:07;98498.03;;;3.47;100.00
49194;BME280;35029;50.804;12.866;2023-11-18T08:27:34;98532.91;;;3.69;100.00
49194;BME280;35029;50.804;12.866;2023-11-18T08:30:01;98513.16;;;3.65;100.00
49194;BME280;35029;50.804;12.866;2023-11-18T08:32:31;98530.44;;;3.77;100.00
49194;BME280;35029;50.804;12.866;2023-11-18T08:34:57;98521.91;;;3.75;100.00
49194;BME280;35029;50.804;12.866;2023-11-18T08:37:22;98526.03;;;3.78;100.00
49194;BME280;35029;50.804;12.866;2023-11-18T08:39:48;98526.88;;;3.78;100.00
49194;BME280;35029;50.804;12.866;2023-11-18T08:42:13;98519.00;;;3.78;100.00
49194;BME280;35029;50.804;12.866;2023-11-18T08:44:40;98530.16;;;3.80;100.00
49194;BME280;35029;50.804;12.866;2023-11-18T08:47:05;98530.16;;;3.80;100.00
49194;BME280;35029;50.804;12.866;2023-11-18T08:49:34;98532.41;;;3.85;100.00
49194;BME280;35029;50.804;12.866;2023-11-18T08:51:59;98532.56;;;3.83;100.00
49194;BME280;35029;50.804;12.866;2023-11-18T08:54:25;98531.47;;;3.86;100.00
49194;BME280;35029;50.804;12.866;2023-11-18T08:56:58;98527.59;;;3.90;100.00
49194;BME280;35029;50.804;12.866;2023-11-18T08:59:23;98522.34;;;3.90;100.00
49194;BME280;35029;50.804;12.866;2023-11-18T09:01:55;98510.50;;;3.96;100.00
49194;BME280;35029;50.804;12.866;2023-11-18T09:04:22;98508.41;;;3.99;100.00
49194;BME280;35029;50.804;12.866;2023-11-18T09:06:49;98515.63;;;4.07;100.00
49194;BME280;35029;50.804;12.866;2023-11-18T09:09:17;98525.84;;;4.10;100.00
49194;BME280;35029;50.804;12.866;2023-11-18T09:11:49;98538.66;;;4.03;100.00
49194;BME280;35029;50.804;12.866;2023-11-18T09:14:14;98529.69;;;4.06;100.00
49194;BME280;35029;50.804;12.866;2023-11-18T09:16:40;98525.59;;;4.13;100.00
49194;BME280;35029;50.804;12.866;2023-11-18T09:19:07;98527.22;;;4.14;100.00
49194;BME280;35029;50.804;12.866;2023-11-18T09:21:32;98523.94;;;4.12;100.00
49194;BME280;35029;50.804;12.866;2023-11-18T09:24:01;98528.59;;;4.09;100.00
49194;BME280;35029;50.804;12.866;2023-11-18T09:26:37;98540.22;;;4.16;100.00
49194;BME280;35029;50.804;12.866;2023-11-18T09:29:03;98545.75;;;4.22;100.00
49194;BME280;35029;50.804;12.866;2023-11-18T09:31:28;98540.25;;;4.26;100.00
49194;BME280;35029;50.804;12.866;2023-11-18T09:33:54;98552.00;;;4.21;100.00
49194;BME280;35029;50.804;12.866;2023-11-18T09:36:22;98552.97;;;4.30;100.00
49194;BME280;35029;50.804;12.866;2023-11-18T09:38:48;98546.31;;;4.26;100.00
49194;BME280;35029;50.804;12.866;2023-11-18T09:41:15;98546.91;;;4.39;100.00
49194;BME280;35029;50.804;12.866;2023-11-18T09:43:42;98538.59;;;4.34;100.00
49194;BME280;35029;50.804;12.866;2023-11-18T09:46:12;98513.16;;;4.25;100.00
49194;BME280;35029;50.804;12.866;2023-11-18T09:48:48;98535.97;;;4.54;100.00
49194;BME280;35029;50.804;12.866;2023-11-18T09:51:34;98544.84;;;4.43;100.00
49194;BME280;35029;50.804;12.866;2023-11-18T09:54:15;98545.00;;;4.51;100.00
49194;BME280;35029;50.804;12.866;2023-11-18T10:01:42;98558.50;;;4.47;100.00
49194;BME280;35029;50.804;12.866;2023-11-18T10:04:09;98554.78;;;4.39;100.00
49194;BME280;35029;50.804;12.866;2023-11-18T10:06:36;98560.16;;;4.38;100.00
49194;BME280;35029;50.804;12.866;2023-11-18T10:09:06;98563.03;;;4.35;100.00
49194;BME280;35029;50.804;12.866;2023-11-18T10:11:51;98558.09;;;4.42;100.00
49194;BME280;35029;50.804;12.866;2023-11-18T10:14:20;98549.81;;;4.46;100.00
49194;BME280;35029;50.804;12.866;2023-11-18T10:16:46;98546.63;;;4.52;100.00
49194;BME280;35029;50.804;12.866;2023-11-18T10:19:12;98549.81;;;4.76;100.00
49194;BME280;35029;50.804;12.866;2023-11-18T10:21:40;98546.38;;;4.75;100.00
49194;BME280;35029;50.804;12.866;2023-11-18T10:24:09;98543.47;;;4.78;100.00
49194;BME280;35029;50.804;12.866;2023-11-18T10:26:43;98546.50;;;4.83;100.00
49194;BME280;35029;50.804;12.866;2023-11-18T10:29:10;98537.53;;;4.66;100.00
49194;BME280;35029;50.804;12.866;2023-11-18T10:31:39;98533.66;;;4.70;100.00
49194;BME280;35029;50.804;12.866;2023-11-18T10:34:14;98523.69;;;4.74;100.00
49194;BME280;35029;50.804;12.866;2023-11-18T10:36:59;98507.66;;;4.97;100.00
49194;BME280;35029;50.804;12.866;2023-11-18T10:39:29;98502.09;;;5.00;100.00
49194;BME280;35029;50.804;12.866;2023-11-18T10:41:59;98508.56;;;5.15;100.00
49194;BME280;35029;50.804;12.866;2023-11-18T10:44:24;98506.94;;;5.14;100.00
49194;BME280;35029;50.804;12.866;2023-11-18T10:46:52;98454.97;;;4.69;100.00
49194;BME280;35029;50.804;12.866;2023-11-18T10:49:26;98502.53;;;4.95;100.00
49194;BME280;35029;50.804;12.866;2023-11-18T10:51:52;98499.03;;;5.14;100.00
49194;BME280;35029;50.804;12.866;2023-11-18T10:54:18;98490.63;;;5.01;100.00
49194;BME280;35029;50.804;12.866;2023-11-18T10:56:51;98512.31;;;5.22;100.00
49194;BME280;35029;50.804;12.866;2023-11-18T10:59:22;98511.72;;;5.29;100.00
49194;BME280;35029;50.804;12.866;2023-11-18T11:01:48;98511.25;;;5.43;100.00
49194;BME280;35029;50.804;12.866;2023-11-18T11:04:15;98503.53;;;5.69;100.00
49194;BME280;35029;50.804;12.866;2023-11-18T11:06:50;98507.41;;;5.75;100.00
49194;BME280;35029;50.804;12.866;2023-11-18T11:09:19;98519.03;;;5.72;100.00
49194;BME280;35029;50.804;12.866;2023-11-18T11:11:56;98517.91;;;5.75;100.00
49194;BME280;35029;50.804;12.866;2023-11-18T11:14:32;98517.25;;;5.25;100.00
49194;BME280;35029;50.804;12.866;2023-11-18T11:17:07;98513.63;;;5.36;100.00
49194;BME280;35029;50.804;12.866;2023-11-18T11:19:50;98503.63;;;5.50;100.00
49194;BME280;35029;50.804;12.866;2023-11-18T11:22:25;98506.88;;;5.62;100.00
49194;BME280;35029;50.804;12.866;2023-11-18T11:25:10;98516.09;;;5.85;100.00
49194;BME280;35029;50.804;12.866;2023-11-18T11:27:55;98506.16;;;6.07;100.00
49194;BME280;35029;50.804;12.866;2023-11-18T11:30:35;98506.56;;;6.30;99.19
49194;BME280;35029;50.804;12.866;2023-11-18T11:33:11;98506.34;;;6.41;96.91
49194;BME280;35029;50.804;12.866;2023-11-18T11:35:40;98504.25;;;6.45;96.09
49194;BME280;35029;50.804;12.866;2023-11-18T11:38:14;98502.34;;;6.37;96.44
49194;BME280;35029;50.804;12.866;2023-11-18T11:40:42;98505.56;;;6.13;95.47
49194;BME280;35029;50.804;12.866;2023-11-18T11:43:09;98500.19;;;6.05;95.42
49194;BME280;35029;50.804;12.866;2023-11-18T11:45:37;98503.03;;;5.93;95.20
49194;BME280;35029;50.804;12.866;2023-11-18T11:48:06;98486.34;;;5.75;96.62
49194;BME280;35029;50.804;12.866;2023-11-18T11:53:36;98489.13;;;5.46;97.21
49194;BME280;35029;50.804;12.866;2023-11-18T11:56:12;98483.75;;;5.37;97.03
49194;BME280;35029;50.804;12.866;2023-11-18T11:58:41;98478.00;;;5.52;97.81
49194;BME280;35029;50.804;12.866;2023-11-18T12:01:26;98457.47;;;5.37;98.02
49194;BME280;35029;50.804;12.866;2023-11-18T12:03:59;98466.38;;;5.54;98.67
49194;BME280;35029;50.804;12.866;2023-11-18T12:06:33;98458.09;;;5.49;97.82
49194;BME280;35029;50.804;12.866;2023-11-18T12:09:00;98457.22;;;5.58;98.90
49194;BME280;35029;50.804;12.866;2023-11-18T12:11:33;98452.41;;;5.54;99.81
49194;BME280;35029;50.804;12.866;2023-11-18T12:14:06;98453.53;;;5.51;100.00
49194;BME280;35029;50.804;12.866;2023-11-18T12:17:05;98444.06;;;5.58;99.72
49194;BME280;35029;50.804;12.866;2023-11-18T12:19:40;98446.28;;;5.63;99.30
49194;BME280;35029;50.804;12.866;2023-11-18T12:22:13;98438.59;;;5.70;99.78
49194;BME280;35029;50.804;12.866;2023-11-18T12:30:37;98415.13;;;5.86;95.83
49194;BME280;35029;50.804;12.866;2023-11-18T12:33:05;98406.19;;;5.97;96.35
49194;BME280;35029;50.804;12.866;2023-11-18T12:49:02;98390.69;;;6.12;95.51
49194;BME280;35029;50.804;12.866;2023-11-18T12:51:31;98388.16;;;6.02;92.80
49194;BME280;35029;50.804;12.866;2023-11-18T12:54:01;98391.91;;;6.00;91.71
49194;BME280;35029;50.804;12.866;2023-11-18T12:56:28;98386.91;;;5.97;92.72
49194;BME280;35029;50.804;12.866;2023-11-18T12:58:55;98391.88;;;5.82;90.93
49194;BME280;35029;50.804;12.866;2023-11-18T13:01:22;98377.28;;;5.69;92.28
49194;BME280;35029;50.804;12.866;2023-11-18T13:03:47;98372.03;;;5.69;93.52
49194;BME280;35029;50.804;12.866;2023-11-18T13:06:13;98363.81;;;5.72;94.99
49194;BME280;35029;50.804;12.866;2023-11-18T13:08:42;98361.72;;;5.76;94.72
49194;BME280;35029;50.804;12.866;2023-11-18T13:11:08;98350.97;;;5.69;93.90
49194;BME280;35029;50.804;12.866;2023-11-18T13:13:42;98355.13;;;5.72;94.60
49194;BME280;35029;50.804;12.866;2023-11-18T13:16:08;98362.84;;;5.73;93.30
49194;BME280;35029;50.804;12.866;2023-11-18T13:21:13;98383.59;;;5.76;94.69
49194;BME280;35029;50.804;12.866;2023-11-18T13:23:39;98393.44;;;5.74;92.94
49194;BME280;35029;50.804;12.866;2023-11-18T13:26:05;98413.81;;;5.72;94.27
49194;BME280;35029;50.804;12.866;2023-11-18T13:28:31;98413.53;;;5.75;94.70